createdAt,value
2022-08-17T00:01:51.421Z,21.47
2022-08-17T00:04:19.978Z,21.43
2022-08-17T00:06:49.093Z,21.40
2022-08-17T00:09:18.809Z,21.37
2022-08-17T00:12:41.620Z,21.34
2022-08-17T00:14:35.093Z,21.33
2022-08-17T00:17:03.958Z,21.30
2022-08-17T00:19:32.815Z,21.30
2022-08-17T00:22:34.097Z,21.29
2022-08-17T00:24:50.718Z,21.27
2022-08-17T00:27:18.747Z,21.26
2022-08-17T00:29:46.933Z,21.24
2022-08-17T00:33:14.307Z,21.22
2022-08-17T00:35:02.382Z,21.20
2022-08-17T00:37:30.051Z,21.13
2022-08-17T00:39:58.043Z,21.06
2022-08-17T00:42:30.782Z,20.97
2022-08-17T00:44:58.841Z,20.92
2022-08-17T00:47:26.624Z,20.84
2022-08-17T00:49:54.293Z,20.81
2022-08-17T00:52:23.165Z,20.76
2022-08-17T00:54:52.367Z,20.75
2022-08-17T00:57:20.180Z,20.72
2022-08-17T00:59:55.950Z,20.73
2022-08-17T01:02:35.005Z,20.72
2022-08-17T01:05:19.035Z,20.73
2022-08-17T01:07:46.967Z,20.74
2022-08-17T01:10:57.103Z,20.75
2022-08-17T01:13:03.449Z,20.78
2022-08-17T01:15:31.515Z,20.85
2022-08-17T01:18:00.220Z,20.89
2022-08-17T01:20:27.910Z,20.92
2022-08-17T01:22:55.612Z,20.87
2022-08-17T01:25:23.467Z,20.80
2022-08-17T01:27:51.793Z,20.71
2022-08-17T01:30:56.652Z,20.63
2022-08-17T01:33:11.538Z,20.54
2022-08-17T01:35:39.202Z,20.45
2022-08-17T01:38:06.910Z,20.37
2022-08-17T01:40:35.324Z,20.32
2022-08-17T01:43:03.033Z,20.27
2022-08-17T01:45:32.248Z,20.22
2022-08-17T01:47:59.902Z,20.19
2022-08-17T01:50:27.854Z,20.18
2022-08-17T01:52:55.579Z,20.15
2022-08-17T01:55:27.239Z,20.15
2022-08-17T01:57:55.221Z,20.13
2022-08-17T02:00:23.191Z,20.13
2022-08-17T02:02:50.939Z,20.12
2022-08-17T02:05:18.725Z,20.11
2022-08-17T02:07:47.955Z,20.10
2022-08-17T02:10:33.643Z,20.10
2022-08-17T02:13:02.350Z,20.08
2022-08-17T02:15:30.099Z,20.05
2022-08-17T02:17:57.789Z,20.02
2022-08-17T02:20:41.684Z,19.97
2022-08-17T02:23:10.610Z,19.91
2022-08-17T02:25:38.288Z,19.85
2022-08-17T02:28:06.183Z,19.80
2022-08-17T02:31:01.582Z,19.76
2022-08-17T02:33:21.776Z,19.71
2022-08-17T02:35:49.832Z,19.68
2022-08-17T02:38:17.545Z,19.64
2022-08-17T02:40:45.679Z,19.62
2022-08-17T02:43:14.735Z,19.57
2022-08-17T02:45:42.539Z,19.54
2022-08-17T02:48:10.274Z,19.50
2022-08-17T02:50:38.636Z,19.48
2022-08-17T02:53:06.485Z,19.46
2022-08-17T02:55:35.013Z,19.45
2022-08-17T02:58:03.864Z,19.44
2022-08-17T03:00:34.083Z,19.43
2022-08-17T03:03:01.818Z,19.43
2022-08-17T03:05:29.416Z,19.39
2022-08-17T03:07:57.171Z,19.36
2022-08-17T03:10:25.700Z,19.35
2022-08-17T03:12:53.376Z,19.34
2022-08-17T03:15:21.030Z,19.35
2022-08-17T03:17:48.733Z,19.35
2022-08-17T03:20:17.366Z,19.35
2022-08-17T03:22:47.891Z,19.35
2022-08-17T03:25:22.595Z,19.39
2022-08-17T03:27:51.525Z,19.40
2022-08-17T03:30:19.724Z,19.42
2022-08-17T03:32:48.928Z,19.46
2022-08-17T03:35:16.523Z,19.49
2022-08-17T03:37:46.508Z,19.55
2022-08-17T03:40:14.504Z,19.60
2022-08-17T03:42:42.347Z,19.63
2022-08-17T03:45:09.941Z,19.61
2022-08-17T03:47:55.148Z,19.54
2022-08-17T03:50:40.017Z,19.42
2022-08-17T03:53:25.321Z,19.33
2022-08-17T03:56:10.165Z,19.24
2022-08-17T03:58:38.193Z,19.21
2022-08-17T04:01:06.183Z,19.19
2022-08-17T04:03:33.975Z,19.18
2022-08-17T04:06:02.397Z,19.19
2022-08-17T04:08:30.114Z,19.17
2022-08-17T04:10:58.007Z,19.15
2022-08-17T04:13:25.777Z,19.17
2022-08-17T04:15:53.413Z,19.18
2022-08-17T04:18:21.069Z,19.19
2022-08-17T04:20:48.804Z,19.19
2022-08-17T04:23:16.507Z,19.19
2022-08-17T04:25:45.174Z,19.20
2022-08-17T04:28:16.005Z,19.21
2022-08-17T04:30:45.317Z,19.22
2022-08-17T04:33:14.256Z,19.21
2022-08-17T04:35:42.131Z,19.23
2022-08-17T04:38:09.832Z,19.23
2022-08-17T04:40:55.398Z,19.24
2022-08-17T04:43:23.073Z,19.28
2022-08-17T04:45:55.023Z,19.30
2022-08-17T04:48:33.400Z,19.33
2022-08-17T04:51:03.831Z,19.37
2022-08-17T04:53:31.502Z,19.41
2022-08-17T04:55:59.460Z,19.45
2022-08-17T04:58:27.475Z,19.51
2022-08-17T05:00:55.164Z,19.55
2022-08-17T05:03:22.893Z,19.58
2022-08-17T05:05:50.550Z,19.58
2022-08-17T05:08:18.286Z,19.58
2022-08-17T05:10:46.160Z,19.60
2022-08-17T05:13:15.587Z,19.63
2022-08-17T05:15:44.856Z,19.65
2022-08-17T05:18:13.047Z,19.63
2022-08-17T05:20:40.942Z,19.62
2022-08-17T05:23:08.590Z,19.63
2022-08-17T05:25:36.302Z,19.62
2022-08-17T05:28:05.140Z,19.65
2022-08-17T05:30:34.238Z,19.67
2022-08-17T05:33:01.948Z,19.71
2022-08-17T05:35:29.601Z,19.74
2022-08-17T05:37:57.299Z,19.83
2022-08-17T05:40:26.066Z,19.91
2022-08-17T05:42:53.786Z,19.98
2022-08-17T05:45:46.089Z,20.05
2022-08-17T05:48:10.459Z,20.12
2022-08-17T05:50:38.374Z,20.22
2022-08-17T05:53:06.498Z,20.30
2022-08-17T05:55:34.479Z,20.36
2022-08-17T05:58:02.506Z,20.46
2022-08-17T06:00:31.251Z,20.60
2022-08-17T06:02:58.962Z,20.75
2022-08-17T06:05:26.680Z,20.90
2022-08-17T06:07:54.648Z,21.02
2022-08-17T06:10:22.299Z,21.16
2022-08-17T06:12:50.201Z,21.30
2022-08-17T06:15:19.561Z,21.46
2022-08-17T06:17:47.162Z,21.61
2022-08-17T06:20:14.899Z,21.73
2022-08-17T06:22:42.637Z,21.81
2022-08-17T06:25:10.952Z,21.87
2022-08-17T06:27:38.695Z,21.96
2022-08-17T06:30:09.357Z,22.05
2022-08-17T06:32:38.248Z,22.16
2022-08-17T06:35:07.124Z,22.27
2022-08-17T06:37:34.826Z,22.38
2022-08-17T06:40:02.993Z,22.51
2022-08-17T06:43:02.190Z,22.65
2022-08-17T06:45:18.413Z,22.79
2022-08-17T06:47:47.673Z,22.88
2022-08-17T06:50:15.900Z,23.02
2022-08-17T06:52:56.058Z,23.12
2022-08-17T06:55:23.907Z,23.20
2022-08-17T06:57:51.677Z,23.30
2022-08-17T07:00:19.395Z,23.37
2022-08-17T07:02:53.068Z,23.46
2022-08-17T07:05:21.125Z,23.56
2022-08-17T07:08:04.989Z,23.66
2022-08-17T07:10:32.738Z,23.74
2022-08-17T07:13:00.397Z,23.81
2022-08-17T07:15:28.127Z,23.89
2022-08-17T07:17:56.340Z,23.95
2022-08-17T07:20:24.078Z,24.03
2022-08-17T07:22:59.638Z,24.12
2022-08-17T07:25:30.811Z,24.23
2022-08-17T07:27:59.921Z,24.39
2022-08-17T07:30:27.588Z,24.57
2022-08-17T07:32:57.549Z,24.84
2022-08-17T07:35:37.690Z,25.12
2022-08-17T07:38:25.506Z,25.43
2022-08-17T07:40:57.804Z,25.76
2022-08-17T07:43:25.792Z,26.07
2022-08-17T07:46:11.349Z,26.23
2022-08-17T07:48:39.126Z,26.37
2022-08-17T07:51:06.850Z,26.46
2022-08-17T07:53:34.757Z,26.59
2022-08-17T07:56:02.715Z,26.72
2022-08-17T07:58:30.365Z,26.84
2022-08-17T08:00:59.268Z,26.95
2022-08-17T08:03:31.990Z,27.09
2022-08-17T08:06:00.465Z,27.22
2022-08-17T08:08:28.643Z,27.32
2022-08-17T08:10:56.360Z,27.43
2022-08-17T08:13:24.064Z,27.58
2022-08-17T08:15:53.458Z,27.73
2022-08-17T08:18:53.286Z,27.90
2022-08-17T08:21:10.263Z,28.05
2022-08-17T08:23:38.483Z,28.20
2022-08-17T08:26:06.519Z,28.37
2022-08-17T08:28:35.867Z,28.59
2022-08-17T08:31:03.811Z,28.79
2022-08-17T08:33:32.174Z,29.00
2022-08-17T08:35:59.875Z,29.14
2022-08-17T08:38:28.260Z,29.30
2022-08-17T08:40:56.307Z,29.48
2022-08-17T08:43:24.640Z,29.68
2022-08-17T08:45:52.523Z,29.92
2022-08-17T08:48:23.014Z,30.15
2022-08-17T08:51:08.603Z,30.36
2022-08-17T08:53:39.262Z,30.46
2022-08-17T08:56:07.178Z,30.48
2022-08-17T08:58:41.330Z,30.55
2022-08-17T09:01:16.710Z,30.65
2022-08-17T09:03:52.918Z,30.73
2022-08-17T09:06:33.357Z,30.67
2022-08-17T09:09:07.343Z,30.65
2022-08-17T09:11:35.748Z,30.67
2022-08-17T09:14:28.598Z,30.80
2022-08-17T09:16:57.114Z,30.81
2022-08-17T09:19:30.599Z,30.83
2022-08-17T09:21:58.272Z,30.74
2022-08-17T09:24:26.958Z,30.63
2022-08-17T09:26:55.673Z,30.39
2022-08-17T09:29:25.572Z,30.14
2022-08-17T09:31:53.580Z,29.95
2022-08-17T09:34:21.516Z,29.80
2022-08-17T09:36:56.244Z,29.68
2022-08-17T09:39:23.894Z,29.56
2022-08-17T09:41:53.503Z,29.43
2022-08-17T09:44:24.026Z,29.28
2022-08-17T09:46:51.958Z,29.11
2022-08-17T09:49:24.633Z,28.89
2022-08-17T09:51:53.221Z,28.70
2022-08-17T09:54:38.525Z,28.55
2022-08-17T09:57:28.633Z,28.39
2022-08-17T09:59:55.499Z,28.28
2022-08-17T10:02:23.198Z,28.20
2022-08-17T10:04:50.817Z,28.10
2022-08-17T10:07:18.908Z,28.02
2022-08-17T10:09:46.635Z,27.94
2022-08-17T10:12:21.588Z,27.90
2022-08-17T10:14:57.641Z,27.83
2022-08-17T10:17:36.510Z,27.76
2022-08-17T10:20:04.186Z,27.66
2022-08-17T10:22:53.195Z,27.60
2022-08-17T10:25:54.016Z,27.58
2022-08-17T10:28:28.940Z,27.58
2022-08-17T10:31:16.536Z,27.58
2022-08-17T10:33:44.726Z,27.58
2022-08-17T10:36:12.461Z,27.57
2022-08-17T10:38:40.207Z,27.56
2022-08-17T10:41:07.868Z,27.53
2022-08-17T10:43:35.871Z,27.48
2022-08-17T10:46:21.308Z,27.44
2022-08-17T10:48:51.781Z,27.42
2022-08-17T10:51:20.709Z,27.43
2022-08-17T10:53:48.570Z,27.43
2022-08-17T10:56:17.713Z,27.43
2022-08-17T10:58:45.841Z,27.37
2022-08-17T11:01:13.515Z,27.27
2022-08-17T11:03:41.666Z,27.15
2022-08-17T11:06:12.856Z,27.04
2022-08-17T11:08:40.728Z,26.96
2022-08-17T11:11:08.718Z,26.89
2022-08-17T11:13:37.809Z,26.83
2022-08-17T11:16:08.541Z,26.73
2022-08-17T11:18:36.714Z,26.66
2022-08-17T11:21:04.683Z,26.59
2022-08-17T11:23:33.223Z,26.54
2022-08-17T11:26:08.346Z,26.51
2022-08-17T11:28:36.072Z,26.48
2022-08-17T11:31:04.118Z,26.45
2022-08-17T11:33:36.912Z,26.45
2022-08-17T11:36:06.594Z,26.44
2022-08-17T11:38:34.237Z,26.47
2022-08-17T11:41:02.661Z,26.52
2022-08-17T11:43:32.237Z,26.55
2022-08-17T11:46:01.466Z,26.60
2022-08-17T11:48:46.648Z,26.69
2022-08-17T11:51:34.930Z,26.88
2022-08-17T11:54:30.974Z,27.26
2022-08-17T11:56:50.453Z,27.55
2022-08-17T11:59:19.861Z,27.65
2022-08-17T12:01:47.567Z,27.67
2022-08-17T12:04:15.300Z,27.63
2022-08-17T12:06:43.146Z,27.63
2022-08-17T12:09:10.961Z,27.75
2022-08-17T12:11:58.665Z,28.15
2022-08-17T12:14:45.022Z,28.71
2022-08-17T12:17:14.416Z,29.19
2022-08-17T12:19:57.341Z,29.55
2022-08-17T12:22:26.661Z,30.39
2022-08-17T12:24:54.830Z,31.36
2022-08-17T12:28:02.064Z,31.68
2022-08-17T12:30:10.676Z,31.68
2022-08-17T12:32:40.807Z,32.10
2022-08-17T12:35:08.939Z,32.70
2022-08-17T12:37:36.888Z,32.65
2022-08-17T12:40:04.732Z,32.21
2022-08-17T12:42:33.167Z,31.68
2022-08-17T12:45:01.193Z,31.23
2022-08-17T12:47:30.220Z,31.00
2022-08-17T12:49:59.493Z,31.15
2022-08-17T12:52:27.228Z,31.76
2022-08-17T12:54:55.145Z,32.53
2022-08-17T12:57:22.831Z,32.84
2022-08-17T12:59:50.465Z,32.83
2022-08-17T13:02:18.188Z,32.70
2022-08-17T13:04:45.806Z,32.84
2022-08-17T13:07:13.864Z,33.17
2022-08-17T13:09:41.805Z,33.53
2022-08-17T13:12:09.566Z,33.73
2022-08-17T13:14:37.274Z,33.81
2022-08-17T13:17:11.034Z,33.78
2022-08-17T13:19:48.302Z,33.77
2022-08-17T13:22:16.111Z,33.84
2022-08-17T13:24:44.195Z,33.85
2022-08-17T13:27:11.967Z,33.89
2022-08-17T13:29:39.974Z,33.95
2022-08-17T13:32:13.000Z,34.12
2022-08-17T13:35:12.959Z,34.30
2022-08-17T13:37:30.426Z,34.26
2022-08-17T13:39:58.178Z,33.90
2022-08-17T13:42:25.937Z,33.44
2022-08-17T13:44:53.942Z,33.17
2022-08-17T13:47:22.197Z,32.71
2022-08-17T13:49:49.885Z,32.53
2022-08-17T13:52:19.727Z,32.62
2022-08-17T13:54:55.612Z,32.18
2022-08-17T13:57:23.697Z,31.66
2022-08-17T13:59:55.158Z,31.07
2022-08-17T14:02:23.476Z,30.65
2022-08-17T14:04:56.385Z,30.32
2022-08-17T14:07:24.143Z,30.06
2022-08-17T14:09:52.151Z,29.75
2022-08-17T14:12:19.808Z,29.49
2022-08-17T14:14:47.510Z,29.25
2022-08-17T14:17:15.306Z,29.08
2022-08-17T14:19:43.239Z,28.88
2022-08-17T14:22:11.822Z,28.71
2022-08-17T14:24:44.697Z,28.56
2022-08-17T14:27:13.169Z,28.40
2022-08-17T14:29:41.459Z,28.24
2022-08-17T14:32:09.292Z,28.04
2022-08-17T14:34:36.981Z,27.76
2022-08-17T14:37:05.971Z,27.56
2022-08-17T14:39:34.067Z,27.41
2022-08-17T14:42:01.843Z,27.33
2022-08-17T14:44:30.242Z,27.31
2022-08-17T14:46:57.944Z,27.30
2022-08-17T14:49:26.160Z,27.37
2022-08-17T14:51:54.220Z,27.48
2022-08-17T14:54:34.362Z,27.54
2022-08-17T14:57:22.454Z,27.47
2022-08-17T14:59:54.228Z,27.36
2022-08-17T15:02:23.085Z,27.25
2022-08-17T15:04:58.056Z,27.17
2022-08-17T15:07:30.417Z,27.15
2022-08-17T15:10:00.487Z,27.23
2022-08-17T15:12:32.403Z,27.27
2022-08-17T15:15:01.042Z,27.20
2022-08-17T15:17:43.937Z,26.73
2022-08-17T15:20:15.020Z,26.21
2022-08-17T15:22:43.386Z,25.93
2022-08-17T15:25:11.246Z,25.82
2022-08-17T15:27:39.233Z,25.80
2022-08-17T15:30:07.413Z,25.82
2022-08-17T15:32:35.202Z,25.84
2022-08-17T15:35:03.037Z,25.83
2022-08-17T15:37:32.012Z,25.81
2022-08-17T15:40:00.849Z,25.84
2022-08-17T15:42:29.398Z,25.89
2022-08-17T15:44:57.220Z,25.89
2022-08-17T15:47:25.302Z,25.94
2022-08-17T15:49:57.935Z,25.96
2022-08-17T15:52:27.706Z,26.01
2022-08-17T15:54:55.364Z,26.06
2022-08-17T15:57:24.224Z,26.13
2022-08-17T15:59:55.104Z,26.23
2022-08-17T16:03:14.979Z,26.38
2022-08-17T16:05:14.582Z,26.75
2022-08-17T16:07:45.195Z,27.79
2022-08-17T16:10:18.308Z,28.74
2022-08-17T16:12:46.920Z,29.59
2022-08-17T16:15:14.857Z,30.40
2022-08-17T16:17:42.794Z,31.10
2022-08-17T16:20:19.928Z,31.68
2022-08-17T16:22:48.657Z,32.05
2022-08-17T16:25:16.786Z,32.23
2022-08-17T16:27:44.584Z,32.35
2022-08-17T16:30:16.935Z,31.94
2022-08-17T16:32:45.201Z,31.38
2022-08-17T16:35:14.442Z,30.75
2022-08-17T16:37:45.462Z,30.14
2022-08-17T16:40:13.688Z,29.67
2022-08-17T16:42:41.684Z,29.32
2022-08-17T16:45:09.929Z,29.01
2022-08-17T16:47:37.780Z,28.72
2022-08-17T16:50:05.480Z,28.47
2022-08-17T16:52:33.758Z,28.28
2022-08-17T16:55:01.716Z,28.10
2022-08-17T16:57:29.933Z,27.97
2022-08-17T16:59:57.637Z,27.86
2022-08-17T17:02:25.355Z,27.72
2022-08-17T17:04:53.094Z,27.60
2022-08-17T17:07:20.827Z,27.48
2022-08-17T17:09:52.674Z,27.38
2022-08-17T17:12:34.973Z,27.25
2022-08-17T17:15:08.185Z,27.11
2022-08-17T17:17:36.261Z,27.03
2022-08-17T17:20:04.027Z,26.96
2022-08-17T17:22:31.740Z,26.89
2022-08-17T17:24:59.656Z,26.83
2022-08-17T17:27:29.669Z,26.75
2022-08-17T17:29:57.423Z,26.69
2022-08-17T17:32:25.207Z,26.60
2022-08-17T17:34:52.873Z,26.52
2022-08-17T17:37:20.600Z,26.43
2022-08-17T17:39:49.190Z,26.33
2022-08-17T17:42:20.292Z,26.26
2022-08-17T17:44:48.115Z,26.17
2022-08-17T17:47:17.089Z,26.08
2022-08-17T17:49:45.141Z,26.02
2022-08-17T17:52:18.445Z,25.94
2022-08-17T17:54:46.972Z,25.85
2022-08-17T17:57:14.657Z,25.78
2022-08-17T17:59:44.216Z,25.71
2022-08-17T18:02:12.202Z,25.64
2022-08-17T18:04:40.932Z,25.58
2022-08-17T18:07:10.082Z,25.48
2022-08-17T18:09:39.145Z,25.41
2022-08-17T18:12:08.998Z,25.35
2022-08-17T18:14:37.081Z,25.28
2022-08-17T18:17:04.733Z,25.21
2022-08-17T18:19:32.787Z,25.15
2022-08-17T18:22:00.920Z,25.08
2022-08-17T18:24:28.661Z,25.02
2022-08-17T18:26:56.533Z,24.97
2022-08-17T18:29:24.999Z,24.90
2022-08-17T18:31:52.822Z,24.83
2022-08-17T18:34:45.771Z,24.76
2022-08-17T18:37:11.271Z,24.67
2022-08-17T18:39:44.255Z,24.60
2022-08-17T18:42:13.147Z,24.53
2022-08-17T18:44:40.863Z,24.47
2022-08-17T18:47:08.597Z,24.40
2022-08-17T18:49:36.652Z,24.34
2022-08-17T18:52:04.369Z,24.27
2022-08-17T18:54:32.536Z,24.20
2022-08-17T18:57:00.321Z,24.13
2022-08-17T18:59:28.464Z,24.07
2022-08-17T19:01:58.483Z,24.00
2022-08-17T19:04:26.994Z,23.92
2022-08-17T19:07:00.483Z,23.86
2022-08-17T19:09:28.508Z,23.81
2022-08-17T19:11:56.187Z,23.75
2022-08-17T19:14:25.923Z,23.67
2022-08-17T19:16:53.648Z,23.64
2022-08-17T19:19:21.654Z,23.59
2022-08-17T19:21:49.413Z,23.56
2022-08-17T19:24:19.607Z,23.51
2022-08-17T19:26:53.608Z,23.47
2022-08-17T19:29:23.865Z,23.41
2022-08-17T19:31:51.533Z,23.36
2022-08-17T19:34:30.183Z,23.30
2022-08-17T19:37:01.986Z,23.25
2022-08-17T19:39:38.628Z,23.20
2022-08-17T19:42:06.555Z,23.14
2022-08-17T19:44:34.511Z,23.09
2022-08-17T19:47:02.733Z,23.05
2022-08-17T19:49:40.687Z,23.02
2022-08-17T19:52:10.258Z,22.98
2022-08-17T19:54:38.189Z,22.92
2022-08-17T19:57:05.976Z,22.88
2022-08-17T19:59:35.956Z,22.83
2022-08-17T20:02:04.493Z,22.80
2022-08-17T20:04:32.615Z,22.76
2022-08-17T20:07:00.555Z,22.71
2022-08-17T20:09:29.633Z,22.68
2022-08-17T20:12:01.462Z,22.64
2022-08-17T20:14:29.096Z,22.61
2022-08-17T20:17:01.878Z,22.57
2022-08-17T20:19:30.667Z,22.53
2022-08-17T20:21:58.415Z,22.48
2022-08-17T20:24:26.088Z,22.46
2022-08-17T20:26:58.144Z,22.40
2022-08-17T20:29:31.896Z,22.38
2022-08-17T20:32:05.749Z,22.35
2022-08-17T20:34:37.408Z,22.32
2022-08-17T20:37:06.134Z,22.29
2022-08-17T20:39:38.116Z,22.27
2022-08-17T20:42:05.907Z,22.24
2022-08-17T20:44:33.756Z,22.21
2022-08-17T20:47:01.622Z,22.17
2022-08-17T20:49:29.407Z,22.13
2022-08-17T20:52:01.698Z,22.11
2022-08-17T20:54:30.517Z,22.07
2022-08-17T20:56:58.420Z,22.04
2022-08-17T20:59:27.705Z,22.02
2022-08-17T21:01:55.453Z,21.98
2022-08-17T21:04:23.098Z,21.95
2022-08-17T21:06:50.724Z,21.91
2022-08-17T21:09:18.784Z,21.87
2022-08-17T21:12:03.262Z,21.83
2022-08-17T21:14:32.891Z,21.79
2022-08-17T21:17:01.466Z,21.74
2022-08-17T21:19:31.207Z,21.72
2022-08-17T21:21:59.213Z,21.70
2022-08-17T21:24:26.955Z,21.68
2022-08-17T21:26:55.605Z,21.64
2022-08-17T21:29:31.376Z,21.62
2022-08-17T21:32:00.616Z,21.61
2022-08-17T21:34:28.447Z,21.59
2022-08-17T21:36:57.062Z,21.56
2022-08-17T21:39:30.651Z,21.53
2022-08-17T21:42:00.976Z,21.43
2022-08-17T21:44:31.180Z,21.28
2022-08-17T21:46:59.073Z,21.11
2022-08-17T21:49:26.777Z,20.96
2022-08-17T21:51:54.568Z,20.83
2022-08-17T21:54:22.557Z,20.73
2022-08-17T21:56:50.244Z,20.62
2022-08-17T21:59:18.330Z,20.55
2022-08-17T22:01:46.018Z,20.49
2022-08-17T22:04:18.333Z,20.44
2022-08-17T22:06:56.678Z,20.39
2022-08-17T22:09:25.859Z,20.30
2022-08-17T22:11:53.490Z,20.24
2022-08-17T22:14:21.786Z,20.20
2022-08-17T22:16:50.751Z,20.16
2022-08-17T22:19:20.493Z,20.15
2022-08-17T22:21:48.179Z,20.14
2022-08-17T22:24:14.860Z,20.15
2022-08-17T22:26:42.788Z,20.13
2022-08-17T22:29:10.546Z,20.14
2022-08-17T22:31:38.246Z,20.16
2022-08-17T22:34:06.839Z,20.18
2022-08-17T22:36:34.683Z,20.13
2022-08-17T22:39:02.687Z,20.07
2022-08-17T22:41:32.170Z,20.01
2022-08-17T22:44:02.522Z,19.97
2022-08-17T22:46:30.386Z,19.99
2022-08-17T22:48:59.509Z,19.99
2022-08-17T22:51:27.434Z,20.00
2022-08-17T22:54:12.504Z,20.02
2022-08-17T22:56:57.724Z,20.00
2022-08-17T22:59:27.382Z,19.98
2022-08-17T23:01:55.053Z,19.91
2022-08-17T23:04:22.802Z,19.81
2022-08-17T23:06:50.423Z,19.73
2022-08-17T23:09:18.431Z,19.68
2022-08-17T23:11:50.051Z,19.61
2022-08-17T23:14:19.308Z,19.56
2022-08-17T23:16:47.017Z,19.51
2022-08-17T23:19:15.516Z,19.48
2022-08-17T23:21:44.892Z,19.49
2022-08-17T23:24:13.754Z,19.50
2022-08-17T23:26:41.438Z,19.52
2022-08-17T23:29:09.560Z,19.54
2022-08-17T23:31:37.369Z,19.54
2022-08-17T23:34:05.021Z,19.53
2022-08-17T23:36:35.384Z,19.51
2022-08-17T23:39:03.309Z,19.48
2022-08-17T23:41:31.763Z,19.51
2022-08-17T23:43:59.396Z,19.53
2022-08-17T23:46:27.060Z,19.58
2022-08-17T23:48:55.016Z,19.61
2022-08-17T23:51:22.760Z,19.65
2022-08-17T23:53:50.426Z,19.67
2022-08-17T23:56:24.088Z,19.67
2022-08-17T23:58:51.766Z,19.67
